Time;durP1;ratioP1;P1;durP2;ratioP2;P2;SDS_P1;SDS_P2;PMS_P1;PMS_P2;Temp;Humidity;BMP_temperature;BMP_pressure;BME280_temperature;BME280_humidity;BME280_pressure;Samples;Min_cycle;Max_cycle;Signal;HPM_P1;HPM_P2
2022/01/18 00:00:15;;;;;;;10.13;7.70;;;;;;;;;;5108636;28;20593;-65
2022/01/18 00:02:41;;;;;;;9.60;7.57;;;;;;;;;;5104968;28;20250;-64
2022/01/18 00:05:13;;;;;;;9.75;8.48;;;;;;;;;;5104858;28;20412;-64
2022/01/18 00:07:39;;;;;;;9.27;7.32;;;;;;;;;;5104898;28;20216;-64
2022/01/18 00:10:06;;;;;;;9.40;7.63;;;;;;;;;;5110901;28;20505;-65
2022/01/18 00:12:55;;;;;;;8.57;7.68;;;;;;;;;;5119998;28;20410;-64
2022/01/18 00:15:36;;;;;;;8.57;7.65;;;;;;;;;;5125321;28;20191;-64
2022/01/18 00:18:09;;;;;;;9.73;8.05;;;;;;;;;;5115827;28;20226;-67
2022/01/18 00:20:46;;;;;;;8.80;7.90;;;;;;;;;;5109098;28;20207;-67
2022/01/18 00:23:12;;;;;;;8.20;7.38;;;;;;;;;;5120786;28;20467;-67
2022/01/18 00:25:42;;;;;;;8.07;7.28;;;;;;;;;;5130617;28;20196;-67
2022/01/18 00:28:09;;;;;;;8.88;7.72;;;;;;;;;;5130697;28;20240;-67
2022/01/18 00:31:00;;;;;;;8.35;7.55;;;;;;;;;;5130256;28;20195;-67
2022/01/18 00:33:39;;;;;;;10.27;7.70;;;;;;;;;;5116362;28;20522;-67
2022/01/18 00:36:07;;;;;;;8.88;7.60;;;;;;;;;;5110654;28;20184;-67
2022/01/18 00:38:44;;;;;;;9.30;7.80;;;;;;;;;;5128134;28;20404;-67
2022/01/18 00:41:13;;;;;;;8.68;7.20;;;;;;;;;;5124501;28;20205;-65
2022/01/18 00:43:40;;;;;;;9.30;7.97;;;;;;;;;;5108790;28;20207;-66
2022/01/18 00:46:08;;;;;;;9.85;7.72;;;;;;;;;;5103701;28;20412;-65
2022/01/18 00:48:36;;;;;;;8.48;7.32;;;;;;;;;;5103573;28;20218;-65
2022/01/18 00:51:03;;;;;;;8.93;8.00;;;;;;;;;;5103973;28;20196;-67
2022/01/18 00:53:31;;;;;;;9.40;7.82;;;;;;;;;;5118020;28;20195;-65
2022/01/18 00:56:11;;;;;;;9.43;7.68;;;;;;;;;;5117292;28;20196;-66
2022/01/18 00:58:37;;;;;;;8.10;7.32;;;;;;;;;;5104054;28;20207;-67
2022/01/18 01:01:04;;;;;;;10.48;8.35;;;;;;;;;;5103774;28;20219;-67
2022/01/18 01:03:32;;;;;;;8.70;7.80;;;;;;;;;;5115767;28;20202;-67
2022/01/18 01:05:58;;;;;;;10.95;9.75;;;;;;;;;;5124170;28;20201;-67
2022/01/18 01:08:25;;;;;;;8.85;7.97;;;;;;;;;;5124203;28;20222;-65
2022/01/18 01:10:51;;;;;;;8.95;7.93;;;;;;;;;;5123894;28;20376;-66
2022/01/18 01:13:18;;;;;;;12.80;9.13;;;;;;;;;;5115927;28;20194;-67
2022/01/18 01:16:02;;;;;;;11.13;8.60;;;;;;;;;;5123703;28;20187;-66
2022/01/18 01:18:40;;;;;;;9.75;8.48;;;;;;;;;;5123903;28;20518;-66
2022/01/18 01:32:22;;;;;;;11.15;9.10;;;;;;;;;;5123624;28;20406;-65
2022/01/18 01:34:53;;;;;;;9.65;8.52;;;;;;;;;;5107799;28;20196;-66
2022/01/18 01:43:10;;;;;;;10.45;8.15;;;;;;;;;;5102976;28;20436;-66
2022/01/18 01:45:37;;;;;;;9.20;8.25;;;;;;;;;;5102407;28;20265;-66
2022/01/18 01:48:04;;;;;;;8.48;7.57;;;;;;;;;;5109108;28;20531;-66
2022/01/18 01:50:41;;;;;;;8.65;7.80;;;;;;;;;;5123447;28;20503;-67
2022/01/18 01:53:10;;;;;;;9.35;8.35;;;;;;;;;;5122155;28;20515;-65
2022/01/18 01:55:37;;;;;;;9.25;8.05;;;;;;;;;;5102408;28;20211;-66
2022/01/18 01:58:03;;;;;;;10.52;8.88;;;;;;;;;;5102651;28;20192;-65
2022/01/18 02:00:29;;;;;;;9.45;8.35;;;;;;;;;;5102804;28;20506;-65
2022/01/18 02:02:56;;;;;;;9.82;8.45;;;;;;;;;;5102517;28;20203;-66
2022/01/18 02:05:23;;;;;;;9.07;8.18;;;;;;;;;;5121570;28;20402;-65
2022/01/18 02:07:49;;;;;;;9.15;8.25;;;;;;;;;;5122742;28;20215;-65
2022/01/18 02:10:17;;;;;;;12.18;9.02;;;;;;;;;;5121592;28;20199;-65
2022/01/18 02:12:44;;;;;;;10.75;8.10;;;;;;;;;;5122828;28;20201;-65
2022/01/18 02:15:11;;;;;;;10.30;8.15;;;;;;;;;;5107083;28;20418;-67
2022/01/18 02:23:13;;;;;;;14.23;8.50;;;;;;;;;;5071150;28;20200;-68
2022/01/18 02:25:40;;;;;;;17.42;9.35;;;;;;;;;;5120296;28;20192;-68
2022/01/18 02:28:07;;;;;;;10.80;8.70;;;;;;;;;;5122647;28;20252;-68
2022/01/18 02:30:33;;;;;;;10.43;8.98;;;;;;;;;;5122602;28;20536;-68
2022/01/18 02:33:00;;;;;;;10.23;8.77;;;;;;;;;;5122564;28;20195;-66
2022/01/18 02:35:26;;;;;;;13.18;9.32;;;;;;;;;;5106191;28;20192;-65
2022/01/18 02:37:54;;;;;;;9.73;8.68;;;;;;;;;;5105221;28;20192;-68
2022/01/18 02:40:21;;;;;;;9.00;8.13;;;;;;;;;;5109256;28;20202;-69
2022/01/18 02:42:56;;;;;;;11.65;9.05;;;;;;;;;;5108271;28;20195;-68
2022/01/18 02:45:23;;;;;;;10.52;8.35;;;;;;;;;;5108396;28;20218;-67
2022/01/18 02:47:53;;;;;;;10.43;8.32;;;;;;;;;;5108322;28;20216;-69
2022/01/18 02:50:19;;;;;;;11.15;8.73;;;;;;;;;;5108520;28;20221;-68
2022/01/18 02:52:46;;;;;;;10.63;8.88;;;;;;;;;;5108904;28;20202;-67
2022/01/18 02:55:14;;;;;;;9.20;7.90;;;;;;;;;;5112248;28;20187;-68
2022/01/18 02:57:54;;;;;;;9.65;8.55;;;;;;;;;;5128617;28;20423;-68
2022/01/18 03:00:28;;;;;;;9.98;8.98;;;;;;;;;;5128335;28;20255;-68
2022/01/18 03:03:13;;;;;;;10.30;8.38;;;;;;;;;;5128631;28;20491;-68
2022/01/18 03:05:40;;;;;;;10.63;9.52;;;;;;;;;;5128047;28;20254;-68
2022/01/18 03:08:08;;;;;;;10.13;9.07;;;;;;;;;;5128425;28;20219;-68
2022/01/18 03:10:36;;;;;;;9.73;8.48;;;;;;;;;;5128918;28;20199;-68
2022/01/18 03:13:03;;;;;;;10.52;8.95;;;;;;;;;;5128875;28;20499;-68
2022/01/18 03:15:30;;;;;;;12.65;9.48;;;;;;;;;;5128083;28;20392;-68
2022/01/18 03:17:56;;;;;;;12.10;9.05;;;;;;;;;;5125617;28;20183;-68
2022/01/18 03:20:25;;;;;;;13.77;9.80;;;;;;;;;;5127558;28;20503;-68
2022/01/18 03:22:51;;;;;;;13.38;8.73;;;;;;;;;;5127530;28;20195;-68
2022/01/18 03:25:28;;;;;;;9.15;8.18;;;;;;;;;;5113729;28;20220;-68
2022/01/18 03:28:05;;;;;;;14.10;8.70;;;;;;;;;;5111593;28;20215;-68
2022/01/18 03:30:32;;;;;;;12.20;9.00;;;;;;;;;;5111497;28;20199;-68
2022/01/18 03:32:59;;;;;;;14.77;9.05;;;;;;;;;;5125366;28;20198;-68
2022/01/18 03:35:25;;;;;;;13.23;8.65;;;;;;;;;;5116532;28;20192;-67
2022/01/18 03:37:52;;;;;;;13.57;9.25;;;;;;;;;;5111668;28;20229;-68
2022/01/18 03:40:18;;;;;;;17.88;9.82;;;;;;;;;;5111783;28;20217;-68
2022/01/18 03:42:47;;;;;;;12.80;9.82;;;;;;;;;;5111457;28;20202;-68
2022/01/18 03:45:18;;;;;;;14.68;9.85;;;;;;;;;;5123948;28;20290;-68
2022/01/18 03:47:46;;;;;;;10.85;9.25;;;;;;;;;;5131938;27;20523;-69
2022/01/18 03:50:13;;;;;;;9.10;8.18;;;;;;;;;;5130781;28;20195;-68
2022/01/18 03:52:40;;;;;;;13.88;9.50;;;;;;;;;;5110750;28;20203;-68
2022/01/18 03:55:07;;;;;;;9.32;8.25;;;;;;;;;;5111030;28;20191;-68
2022/01/18 03:57:34;;;;;;;11.25;9.00;;;;;;;;;;5111107;28;20196;-68
2022/01/18 04:00:00;;;;;;;11.02;8.80;;;;;;;;;;5111100;28;20204;-69
2022/01/18 04:02:28;;;;;;;11.70;9.32;;;;;;;;;;5110888;28;20196;-68
2022/01/18 04:04:54;;;;;;;11.68;9.50;;;;;;;;;;5119532;28;20203;-68
2022/01/18 04:07:23;;;;;;;13.07;10.73;;;;;;;;;;5132210;28;20195;-68
2022/01/18 04:09:51;;;;;;;14.68;11.48;;;;;;;;;;5131203;28;20274;-70
2022/01/18 04:12:21;;;;;;;13.63;11.20;;;;;;;;;;5118969;28;20528;-67
2022/01/18 04:14:50;;;;;;;15.50;11.23;;;;;;;;;;5110834;28;20203;-69
2022/01/18 04:17:33;;;;;;;14.98;10.70;;;;;;;;;;5110854;28;20388;-69
2022/01/18 04:26:02;;;;;;;10.77;9.05;;;;;;;;;;5068299;28;20216;-69
2022/01/18 04:28:35;;;;;;;14.00;10.30;;;;;;;;;;5068830;28;20280;-68
2022/01/18 04:31:02;;;;;;;13.38;10.93;;;;;;;;;;5090120;28;21667;-68
2022/01/18 04:33:28;;;;;;;11.82;9.80;;;;;;;;;;5111452;28;20200;-68
2022/01/18 04:35:57;;;;;;;9.93;8.85;;;;;;;;;;5110415;28;20196;-68
2022/01/18 04:38:25;;;;;;;10.20;9.20;;;;;;;;;;5110723;28;20488;-69
2022/01/18 04:40:59;;;;;;;10.75;9.65;;;;;;;;;;5110761;28;20202;-68
2022/01/18 04:43:46;;;;;;;11.88;10.18;;;;;;;;;;5121683;28;20228;-68
2022/01/18 04:48:58;;;;;;;11.40;10.18;;;;;;;;;;5130286;28;20248;-68
2022/01/18 04:51:26;;;;;;;11.68;9.82;;;;;;;;;;5130247;28;20195;-68
2022/01/18 04:53:55;;;;;;;12.75;10.05;;;;;;;;;;5129705;28;20394;-68
2022/01/18 04:56:29;;;;;;;12.77;9.90;;;;;;;;;;5130291;28;20256;-69
2022/01/18 04:58:56;;;;;;;11.18;9.30;;;;;;;;;;5130579;28;20216;-69
2022/01/18 05:01:24;;;;;;;11.45;10.20;;;;;;;;;;5129324;28;20260;-68
2022/01/18 05:03:57;;;;;;;14.65;10.10;;;;;;;;;;5110296;28;20192;-69
2022/01/18 05:06:23;;;;;;;13.60;9.80;;;;;;;;;;5103526;28;20478;-69
2022/01/18 05:08:51;;;;;;;11.45;9.98;;;;;;;;;;5103905;28;20216;-69
2022/01/18 05:11:20;;;;;;;11.10;9.52;;;;;;;;;;5103793;28;20243;-68
2022/01/18 05:16:47;;;;;;;15.63;10.75;;;;;;;;;;5123109;28;20258;-69
2022/01/18 05:19:21;;;;;;;14.45;10.18;;;;;;;;;;5123597;28;20183;-68
2022/01/18 05:24:33;;;;;;;15.40;11.13;;;;;;;;;;5104452;28;20202;-68
2022/01/18 05:27:00;;;;;;;13.65;10.02;;;;;;;;;;5103278;28;20207;-69
2022/01/18 05:29:27;;;;;;;14.85;10.45;;;;;;;;;;5119259;28;20226;-68
2022/01/18 05:31:53;;;;;;;12.98;10.43;;;;;;;;;;5121411;28;20209;-69
2022/01/18 05:34:20;;;;;;;14.95;11.18;;;;;;;;;;5123542;28;20492;-69
2022/01/18 05:36:47;;;;;;;13.77;10.80;;;;;;;;;;5123298;28;20195;-69
2022/01/18 05:39:13;;;;;;;14.85;10.70;;;;;;;;;;5110430;28;20188;-68
2022/01/18 05:41:44;;;;;;;15.00;11.07;;;;;;;;;;5103023;28;20195;-69
2022/01/18 05:44:11;;;;;;;14.90;10.93;;;;;;;;;;5102934;28;20203;-69
2022/01/18 05:46:37;;;;;;;12.82;10.55;;;;;;;;;;5102812;28;20395;-69
2022/01/18 05:49:04;;;;;;;20.25;14.98;;;;;;;;;;5104635;28;20219;-69
2022/01/18 05:51:33;;;;;;;20.13;13.60;;;;;;;;;;5111101;28;20391;-69
2022/01/18 05:54:02;;;;;;;16.17;12.98;;;;;;;;;;5102769;28;20267;-69
2022/01/18 05:56:31;;;;;;;15.82;11.85;;;;;;;;;;5102773;28;20511;-69
2022/01/18 05:59:03;;;;;;;15.20;11.35;;;;;;;;;;5102700;28;20207;-68
2022/01/18 06:01:33;;;;;;;15.27;11.77;;;;;;;;;;5102943;28;20274;-68
2022/01/18 06:04:17;;;;;;;17.23;11.05;;;;;;;;;;5102563;28;20263;-69
2022/01/18 06:06:53;;;;;;;14.80;10.50;;;;;;;;;;5107918;28;20513;-69
2022/01/18 06:09:23;;;;;;;16.60;12.00;;;;;;;;;;5122819;28;20218;-68
2022/01/18 06:11:52;;;;;;;14.77;10.73;;;;;;;;;;5120417;28;20195;-67
2022/01/18 06:14:23;;;;;;;14.57;11.35;;;;;;;;;;5102064;28;20237;-68
2022/01/18 06:16:49;;;;;;;14.00;11.45;;;;;;;;;;5102331;28;20204;-69
2022/01/18 06:19:19;;;;;;;19.52;13.65;;;;;;;;;;5101915;28;20188;-68
2022/01/18 06:21:46;;;;;;;18.00;12.77;;;;;;;;;;5102170;28;20218;-68
2022/01/18 06:24:13;;;;;;;15.60;12.52;;;;;;;;;;5102497;28;20196;-68
2022/01/18 06:26:40;;;;;;;16.98;12.40;;;;;;;;;;5102141;28;20218;-68
2022/01/18 06:29:06;;;;;;;17.35;13.27;;;;;;;;;;5102470;28;20215;-68
2022/01/18 06:31:34;;;;;;;19.05;14.18;;;;;;;;;;5101438;28;20199;-67
2022/01/18 06:34:00;;;;;;;29.25;18.20;;;;;;;;;;5102572;28;20491;-68
2022/01/18 06:36:27;;;;;;;40.85;23.65;;;;;;;;;;5101993;28;20180;-68
2022/01/18 06:38:53;;;;;;;45.47;25.08;;;;;;;;;;5102114;28;20213;-69
2022/01/18 06:41:20;;;;;;;46.42;27.42;;;;;;;;;;5102398;28;20188;-69
2022/01/18 06:43:46;;;;;;;42.58;25.17;;;;;;;;;;5102711;28;20203;-69
2022/01/18 06:46:12;;;;;;;42.70;26.10;;;;;;;;;;5102206;28;20250;-68
2022/01/18 06:48:44;;;;;;;38.47;23.00;;;;;;;;;;5102319;28;20258;-71
2022/01/18 06:51:10;;;;;;;40.45;23.73;;;;;;;;;;5101970;28;20291;-71
2022/01/18 06:53:44;;;;;;;41.72;24.30;;;;;;;;;;5102002;28;20386;-71
2022/01/18 06:56:10;;;;;;;36.15;23.20;;;;;;;;;;5102015;28;20210;-71
2022/01/18 06:58:36;;;;;;;43.03;25.35;;;;;;;;;;5102033;28;20191;-58
2022/01/18 07:01:03;;;;;;;40.38;23.70;;;;;;;;;;5101506;27;20219;-58
2022/01/18 07:03:29;;;;;;;36.38;23.15;;;;;;;;;;5118898;27;20229;-58
2022/01/18 07:05:57;;;;;;;37.55;23.90;;;;;;;;;;5112566;27;20219;-58
2022/01/18 07:08:23;;;;;;;41.17;23.90;;;;;;;;;;5112769;27;20413;-58
2022/01/18 07:10:50;;;;;;;38.63;23.05;;;;;;;;;;5122039;27;20234;-58
2022/01/18 07:13:16;;;;;;;35.67;22.02;;;;;;;;;;5141340;27;20206;-56
2022/01/18 07:15:43;;;;;;;31.85;21.13;;;;;;;;;;5128823;27;20202;-57
2022/01/18 07:18:10;;;;;;;34.70;22.73;;;;;;;;;;5111139;28;20214;-58
2022/01/18 07:20:37;;;;;;;38.65;22.05;;;;;;;;;;5119876;28;20281;-59
2022/01/18 07:23:07;;;;;;;38.90;23.75;;;;;;;;;;5122047;27;20203;-58
2022/01/18 07:25:33;;;;;;;35.97;22.02;;;;;;;;;;5125138;27;20240;-59
2022/01/18 07:28:00;;;;;;;35.42;21.08;;;;;;;;;;5122414;27;20207;-60
2022/01/18 07:30:26;;;;;;;32.97;20.83;;;;;;;;;;5104673;28;20223;-61
2022/01/18 07:32:53;;;;;;;38.67;21.75;;;;;;;;;;5115280;28;20204;-58
2022/01/18 07:35:19;;;;;;;38.92;21.95;;;;;;;;;;5115281;28;20434;-58
2022/01/18 07:37:45;;;;;;;34.03;21.27;;;;;;;;;;5101150;28;20212;-58
2022/01/18 07:40:13;;;;;;;36.97;22.05;;;;;;;;;;5119935;28;20210;-59
2022/01/18 07:42:40;;;;;;;34.20;20.67;;;;;;;;;;5120195;28;20207;-59
2022/01/18 07:45:07;;;;;;;29.67;19.40;;;;;;;;;;5117973;28;20238;-58
2022/01/18 07:47:33;;;;;;;30.42;20.08;;;;;;;;;;5099604;28;20203;-59
2022/01/18 07:50:00;;;;;;;32.25;21.40;;;;;;;;;;5099202;28;20227;-58
2022/01/18 07:52:26;;;;;;;37.67;21.10;;;;;;;;;;5108703;28;20207;-59
2022/01/18 07:54:53;;;;;;;36.05;22.10;;;;;;;;;;5102801;28;20200;-58
2022/01/18 07:57:21;;;;;;;40.33;21.27;;;;;;;;;;5104341;28;20203;-57
2022/01/18 07:59:47;;;;;;;36.50;23.30;;;;;;;;;;5129985;27;20274;-59
2022/01/18 08:02:14;;;;;;;37.85;22.35;;;;;;;;;;5112638;27;20204;-58
2022/01/18 08:04:40;;;;;;;32.13;20.42;;;;;;;;;;5102466;28;20309;-60
2022/01/18 08:07:07;;;;;;;34.35;20.80;;;;;;;;;;5110048;28;20538;-60
2022/01/18 08:09:33;;;;;;;34.97;20.35;;;;;;;;;;5110167;28;20219;-59
2022/01/18 08:11:59;;;;;;;36.33;22.50;;;;;;;;;;5117792;28;20579;-55
2022/01/18 08:14:31;;;;;;;34.35;21.75;;;;;;;;;;5103906;28;20253;-54
2022/01/18 08:17:04;;;;;;;36.38;21.20;;;;;;;;;;5099199;28;20235;-55
2022/01/18 08:19:31;;;;;;;40.35;22.20;;;;;;;;;;5118671;28;20274;-54
2022/01/18 08:21:58;;;;;;;33.55;21.13;;;;;;;;;;5119597;27;20206;-54
2022/01/18 08:24:25;;;;;;;36.90;22.95;;;;;;;;;;5123810;27;20214;-55
2022/01/18 08:26:52;;;;;;;35.17;21.23;;;;;;;;;;5118528;28;20203;-55
2022/01/18 08:29:18;;;;;;;37.63;23.10;;;;;;;;;;5118795;28;20227;-56
2022/01/18 08:31:46;;;;;;;38.60;24.05;;;;;;;;;;5104870;28;20199;-55
2022/01/18 08:34:13;;;;;;;38.58;23.27;;;;;;;;;;5099066;28;20245;-55
2022/01/18 08:36:40;;;;;;;36.67;22.58;;;;;;;;;;5100047;28;20208;-54
2022/01/18 08:39:07;;;;;;;37.33;22.60;;;;;;;;;;5098807;28;20204;-55
2022/01/18 08:41:33;;;;;;;34.33;22.83;;;;;;;;;;5107336;28;20418;-53
2022/01/18 08:44:00;;;;;;;34.08;20.98;;;;;;;;;;5119037;28;20207;-53
2022/01/18 08:46:28;;;;;;;32.30;20.30;;;;;;;;;;5116386;28;20335;-53
2022/01/18 08:48:56;;;;;;;34.95;18.95;;;;;;;;;;5119076;28;20269;-53
2022/01/18 08:51:22;;;;;;;33.10;20.00;;;;;;;;;;5117083;28;20207;-54
2022/01/18 08:53:50;;;;;;;29.10;18.58;;;;;;;;;;5118711;28;20233;-54
2022/01/18 08:56:17;;;;;;;30.52;18.33;;;;;;;;;;5118529;28;20396;-53
2022/01/18 08:58:43;;;;;;;28.45;18.92;;;;;;;;;;5118809;28;20207;-53
2022/01/18 09:01:10;;;;;;;28.17;18.23;;;;;;;;;;5122537;27;20204;-53
2022/01/18 09:03:36;;;;;;;27.88;17.55;;;;;;;;;;5106028;28;20203;-54
2022/01/18 09:06:05;;;;;;;29.80;18.73;;;;;;;;;;5115891;28;20256;-56
2022/01/18 09:08:33;;;;;;;28.30;16.83;;;;;;;;;;5116858;28;20293;-56
2022/01/18 09:10:59;;;;;;;29.13;17.10;;;;;;;;;;5118407;28;20254;-55
2022/01/18 09:13:34;;;;;;;25.45;16.77;;;;;;;;;;5117458;28;20272;-59
2022/01/18 09:16:00;;;;;;;23.40;16.10;;;;;;;;;;5118499;28;20207;-57
2022/01/18 09:18:26;;;;;;;24.35;16.50;;;;;;;;;;5117959;28;20206;-55
2022/01/18 09:20:53;;;;;;;25.90;17.88;;;;;;;;;;5102938;28;20211;-53
2022/01/18 09:23:21;;;;;;;24.52;16.58;;;;;;;;;;5104780;28;20230;-53
2022/01/18 09:25:48;;;;;;;28.63;18.45;;;;;;;;;;5117754;28;20207;-53
2022/01/18 09:28:14;;;;;;;28.15;18.02;;;;;;;;;;5117729;28;20207;-52
2022/01/18 09:30:41;;;;;;;29.80;18.75;;;;;;;;;;5118022;28;20222;-53
2022/01/18 09:33:07;;;;;;;26.67;17.88;;;;;;;;;;5117085;28;20211;-54
2022/01/18 09:35:34;;;;;;;27.60;17.73;;;;;;;;;;5117058;28;20455;-54
2022/01/18 09:38:00;;;;;;;27.60;17.27;;;;;;;;;;5097347;28;20215;-53
2022/01/18 09:40:29;;;;;;;29.02;18.45;;;;;;;;;;5112141;28;20514;-54
2022/01/18 09:42:56;;;;;;;26.33;17.10;;;;;;;;;;5118098;28;20251;-53
2022/01/18 09:45:23;;;;;;;25.83;17.77;;;;;;;;;;5116857;28;20226;-54
2022/01/18 09:47:51;;;;;;;28.40;17.60;;;;;;;;;;5117258;28;20376;-54
2022/01/18 09:50:21;;;;;;;26.90;18.08;;;;;;;;;;5117865;28;20434;-53
2022/01/18 09:52:51;;;;;;;26.90;16.98;;;;;;;;;;5117514;28;20453;-53
2022/01/18 09:55:17;;;;;;;28.20;17.08;;;;;;;;;;5115987;28;20211;-53
2022/01/18 09:57:45;;;;;;;28.58;17.98;;;;;;;;;;5112657;28;20224;-54
2022/01/18 10:00:12;;;;;;;28.83;18.35;;;;;;;;;;5100713;27;20210;-53
2022/01/18 10:02:39;;;;;;;31.73;19.90;;;;;;;;;;5117207;28;20210;-53
2022/01/18 10:05:17;;;;;;;31.80;19.63;;;;;;;;;;5116260;28;20289;-55
2022/01/18 10:07:44;;;;;;;31.17;18.63;;;;;;;;;;5116202;28;20206;-54
2022/01/18 10:10:10;;;;;;;29.00;18.70;;;;;;;;;;5099650;28;20226;-54
2022/01/18 10:12:37;;;;;;;30.08;18.63;;;;;;;;;;5104802;28;20492;-55
2022/01/18 10:15:05;;;;;;;26.17;17.17;;;;;;;;;;5110617;28;20252;-55
2022/01/18 10:17:32;;;;;;;30.08;18.88;;;;;;;;;;5096306;28;20203;-53
2022/01/18 10:20:03;;;;;;;30.35;18.13;;;;;;;;;;5096540;28;20454;-53
2022/01/18 10:22:35;;;;;;;29.90;18.35;;;;;;;;;;5113217;28;20211;-54
2022/01/18 10:25:12;;;;;;;27.83;18.17;;;;;;;;;;5116638;28;20219;-54
2022/01/18 10:27:39;;;;;;;21.70;14.80;;;;;;;;;;5102347;28;20562;-52
2022/01/18 10:30:08;;;;;;;23.40;12.88;;;;;;;;;;5116392;28;20239;-54
2022/01/18 10:32:39;;;;;;;20.80;12.85;;;;;;;;;;5117196;28;20279;-53
2022/01/18 10:35:08;;;;;;;24.10;14.45;;;;;;;;;;5107334;28;20423;-55
2022/01/18 10:37:35;;;;;;;22.40;14.25;;;;;;;;;;5111297;28;20586;-53
2022/01/18 10:40:04;;;;;;;25.48;14.07;;;;;;;;;;5121107;27;20207;-54
2022/01/18 10:42:36;;;;;;;21.77;14.07;;;;;;;;;;5112929;28;20207;-53
2022/01/18 10:45:04;;;;;;;22.77;14.55;;;;;;;;;;5119565;28;20222;-55
2022/01/18 10:47:33;;;;;;;28.83;16.10;;;;;;;;;;5124137;28;20214;-54
2022/01/18 10:50:07;;;;;;;25.95;15.15;;;;;;;;;;5120236;28;20222;-53
2022/01/18 10:52:33;;;;;;;24.75;15.40;;;;;;;;;;5121218;28;20214;-52
2022/01/18 10:55:00;;;;;;;24.85;15.43;;;;;;;;;;5110412;28;20490;-53
2022/01/18 10:57:28;;;;;;;31.08;16.08;;;;;;;;;;5123464;28;20206;-53
2022/01/18 10:59:58;;;;;;;29.00;16.88;;;;;;;;;;5120776;27;20203;-53
2022/01/18 11:02:24;;;;;;;24.63;14.07;;;;;;;;;;5123727;28;20213;-55
2022/01/18 11:04:53;;;;;;;24.50;15.13;;;;;;;;;;5123771;28;20414;-55
2022/01/18 11:07:20;;;;;;;29.80;16.55;;;;;;;;;;5123188;28;20206;-56
2022/01/18 11:09:47;;;;;;;26.63;16.30;;;;;;;;;;5120629;28;20227;-56
2022/01/18 11:12:13;;;;;;;23.50;15.45;;;;;;;;;;5123172;28;20411;-55
2022/01/18 11:14:43;;;;;;;21.75;15.07;;;;;;;;;;5123405;28;20207;-53
2022/01/18 11:17:13;;;;;;;25.27;14.82;;;;;;;;;;5123803;27;20401;-55
2022/01/18 11:19:40;;;;;;;25.02;14.68;;;;;;;;;;5124914;27;20241;-53
2022/01/18 11:22:10;;;;;;;25.42;15.05;;;;;;;;;;5126735;27;20256;-55
2022/01/18 11:24:38;;;;;;;25.55;14.82;;;;;;;;;;5123474;28;20246;-53
2022/01/18 11:27:08;;;;;;;22.75;13.85;;;;;;;;;;5111558;28;20466;-52
2022/01/18 11:29:35;;;;;;;22.08;14.23;;;;;;;;;;5122583;28;20422;-53
2022/01/18 11:32:01;;;;;;;20.77;13.60;;;;;;;;;;5122466;28;20209;-55
2022/01/18 11:34:34;;;;;;;17.88;12.82;;;;;;;;;;5109266;28;20244;-55
2022/01/18 11:37:07;;;;;;;24.38;13.73;;;;;;;;;;5104577;28;20207;-54
2022/01/18 11:39:35;;;;;;;20.40;13.15;;;;;;;;;;5102850;28;20207;-54
2022/01/18 11:42:08;;;;;;;22.63;12.30;;;;;;;;;;5108206;28;20218;-55
2022/01/18 11:44:35;;;;;;;19.13;12.50;;;;;;;;;;5121943;27;20535;-55
2022/01/18 11:47:02;;;;;;;25.10;13.20;;;;;;;;;;5102446;28;20207;-55
2022/01/18 11:49:30;;;;;;;20.05;11.93;;;;;;;;;;5099669;28;20436;-55
2022/01/18 11:51:59;;;;;;;20.45;10.90;;;;;;;;;;5107437;28;20227;-55
2022/01/18 11:54:32;;;;;;;17.10;10.38;;;;;;;;;;5118123;28;20207;-55
2022/01/18 11:57:00;;;;;;;17.00;10.75;;;;;;;;;;5110473;28;20274;-52
2022/01/18 11:59:27;;;;;;;15.15;10.85;;;;;;;;;;5115222;27;20414;-53
2022/01/18 12:01:55;;;;;;;29.10;11.82;;;;;;;;;;5121628;27;20206;-54
2022/01/18 12:04:40;;;;;;;35.80;13.10;;;;;;;;;;5119062;27;20507;-55
2022/01/18 12:07:07;;;;;;;28.73;12.63;;;;;;;;;;5119902;28;20303;-54
2022/01/18 12:09:37;;;;;;;23.25;11.10;;;;;;;;;;5119070;28;20211;-54
2022/01/18 12:12:05;;;;;;;18.27;11.40;;;;;;;;;;5107192;28;20224;-52
2022/01/18 12:14:33;;;;;;;18.05;10.73;;;;;;;;;;5105529;28;20203;-52
2022/01/18 12:17:12;;;;;;;14.80;10.43;;;;;;;;;;5115772;28;21608;-53
2022/01/18 12:19:44;;;;;;;18.48;11.05;;;;;;;;;;5111818;28;20214;-54
2022/01/18 12:22:10;;;;;;;17.42;10.32;;;;;;;;;;5110092;28;20230;-56
2022/01/18 12:24:37;;;;;;;15.95;10.50;;;;;;;;;;5112107;28;20227;-54
2022/01/18 12:27:18;;;;;;;14.75;9.93;;;;;;;;;;5118381;28;20242;-55
2022/01/18 12:30:14;;;;;;;13.88;9.13;;;;;;;;;;5100135;28;20208;-55
2022/01/18 12:32:57;;;;;;;14.40;9.60;;;;;;;;;;5098956;28;20196;-60
2022/01/18 12:35:26;;;;;;;15.18;9.10;;;;;;;;;;5112807;28;20414;-59
2022/01/18 12:37:54;;;;;;;11.43;7.57;;;;;;;;;;5119223;28;20563;-58
2022/01/18 12:40:25;;;;;;;11.05;7.07;;;;;;;;;;5102359;28;20204;-57
2022/01/18 12:45:45;;;;;;;16.30;10.25;;;;;;;;;;5111307;28;20225;-59
2022/01/18 12:48:14;;;;;;;12.38;7.55;;;;;;;;;;5112094;28;20210;-60
2022/01/18 12:50:41;;;;;;;11.77;6.22;;;;;;;;;;5108334;28;20224;-59
2022/01/18 12:53:08;;;;;;;9.65;5.28;;;;;;;;;;5112864;28;20203;-59
2022/01/18 12:55:38;;;;;;;10.57;5.40;;;;;;;;;;5117575;28;20529;-60
2022/01/18 12:58:09;;;;;;;7.18;4.55;;;;;;;;;;5103616;28;20515;-60
2022/01/18 13:00:36;;;;;;;7.10;4.47;;;;;;;;;;5117243;28;20400;-60
2022/01/18 13:03:04;;;;;;;12.55;4.63;;;;;;;;;;5118764;28;20511;-60
2022/01/18 13:05:38;;;;;;;27.90;6.03;;;;;;;;;;5117250;28;20535;-60
2022/01/18 13:08:05;;;;;;;20.23;6.00;;;;;;;;;;5118186;28;20251;-55
2022/01/18 13:10:35;;;;;;;22.27;6.70;;;;;;;;;;5117278;28;20215;-56
2022/01/18 13:13:02;;;;;;;17.88;6.10;;;;;;;;;;5108940;28;20204;-55
2022/01/18 13:15:39;;;;;;;11.25;4.28;;;;;;;;;;5113555;28;20511;-53
2022/01/18 13:23:52;;;;;;;5.93;3.33;;;;;;;;;;5112501;28;20653;-55
2022/01/18 13:26:27;;;;;;;4.07;3.53;;;;;;;;;;5108135;28;20206;-60
2022/01/18 13:28:54;;;;;;;4.95;3.58;;;;;;;;;;5120368;28;20211;-60
2022/01/18 13:31:24;;;;;;;4.30;3.25;;;;;;;;;;5119456;28;20295;-58
2022/01/18 13:33:52;;;;;;;4.72;3.28;;;;;;;;;;5117185;28;20187;-60
2022/01/18 13:36:20;;;;;;;5.22;4.30;;;;;;;;;;5105341;28;20203;-59
2022/01/18 13:38:46;;;;;;;3.42;3.15;;;;;;;;;;5115751;28;20507;-53
2022/01/18 13:41:13;;;;;;;4.90;3.03;;;;;;;;;;5117731;28;20203;-55
2022/01/18 13:43:39;;;;;;;5.75;3.65;;;;;;;;;;5107927;28;20203;-55
2022/01/18 13:46:06;;;;;;;4.75;3.20;;;;;;;;;;5114992;28;20223;-54
2022/01/18 13:48:33;;;;;;;6.07;3.83;;;;;;;;;;5111454;28;20518;-59
2022/01/18 13:51:08;;;;;;;4.85;3.50;;;;;;;;;;5100119;28;20559;-60
2022/01/18 13:53:35;;;;;;;3.78;3.47;;;;;;;;;;5107518;28;20207;-60
2022/01/18 13:56:03;;;;;;;4.45;3.75;;;;;;;;;;5118358;27;20208;-59
2022/01/18 13:58:30;;;;;;;5.90;3.30;;;;;;;;;;5114567;27;20214;-59
2022/01/18 14:01:07;;;;;;;4.03;3.60;;;;;;;;;;5121560;27;20203;-59
2022/01/18 14:03:34;;;;;;;5.38;3.60;;;;;;;;;;5102911;28;20209;-59
2022/01/18 14:06:02;;;;;;;4.13;3.72;;;;;;;;;;5108373;28;20235;-58
2022/01/18 14:08:32;;;;;;;4.65;3.95;;;;;;;;;;5102780;28;20204;-58
2022/01/18 14:11:03;;;;;;;4.13;3.67;;;;;;;;;;5102489;28;20222;-54
2022/01/18 14:13:35;;;;;;;4.05;3.70;;;;;;;;;;5116535;28;20213;-53
2022/01/18 14:16:02;;;;;;;7.05;4.22;;;;;;;;;;5108805;28;20667;-53
2022/01/18 14:18:28;;;;;;;6.82;3.95;;;;;;;;;;5106035;28;20416;-55
2022/01/18 14:20:58;;;;;;;3.72;3.40;;;;;;;;;;5116499;28;20215;-59
2022/01/18 14:23:26;;;;;;;3.35;3.05;;;;;;;;;;5116499;28;20214;-59
2022/01/18 14:25:52;;;;;;;6.00;3.80;;;;;;;;;;5116922;28;20503;-58
2022/01/18 14:28:19;;;;;;;5.97;3.75;;;;;;;;;;5109706;28;20237;-58
2022/01/18 14:30:47;;;;;;;6.63;3.78;;;;;;;;;;5110328;28;20214;-56
2022/01/18 14:33:14;;;;;;;8.13;3.85;;;;;;;;;;5111399;28;20207;-58
2022/01/18 14:35:42;;;;;;;10.48;4.40;;;;;;;;;;5096590;28;20410;-57
2022/01/18 14:38:15;;;;;;;8.43;4.07;;;;;;;;;;5096981;28;20399;-59
2022/01/18 14:40:43;;;;;;;7.00;4.05;;;;;;;;;;5106209;28;20203;-58
2022/01/18 14:43:13;;;;;;;6.07;3.78;;;;;;;;;;5117223;28;20535;-59
2022/01/18 14:45:42;;;;;;;4.90;3.58;;;;;;;;;;5115229;28;20396;-59
2022/01/18 14:48:10;;;;;;;4.88;3.35;;;;;;;;;;5104324;28;20292;-59
2022/01/18 14:50:38;;;;;;;4.60;3.58;;;;;;;;;;5115271;28;20210;-59
2022/01/18 14:53:06;;;;;;;5.38;3.72;;;;;;;;;;5123615;28;20226;-59
2022/01/18 14:55:32;;;;;;;5.05;3.80;;;;;;;;;;5100369;28;20208;-59
2022/01/18 14:58:00;;;;;;;3.70;3.40;;;;;;;;;;5118990;28;20207;-54
2022/01/18 15:00:27;;;;;;;5.25;3.22;;;;;;;;;;5123867;28;20206;-55
2022/01/18 15:02:55;;;;;;;3.80;3.28;;;;;;;;;;5115664;28;20355;-54
2022/01/18 15:05:21;;;;;;;3.88;3.20;;;;;;;;;;5114871;28;20214;-55
2022/01/18 15:07:48;;;;;;;4.68;3.42;;;;;;;;;;5117238;28;20420;-58
2022/01/18 15:10:15;;;;;;;8.77;3.55;;;;;;;;;;5116591;28;20207;-59
2022/01/18 15:12:43;;;;;;;5.18;3.80;;;;;;;;;;5108187;28;20497;-58
2022/01/18 15:15:11;;;;;;;5.95;3.35;;;;;;;;;;5103458;28;20217;-59
2022/01/18 15:17:38;;;;;;;10.38;5.72;;;;;;;;;;5110989;28;20414;-58
2022/01/18 15:20:05;;;;;;;3.13;2.67;;;;;;;;;;5096927;28;20547;-57